Time;durP1;ratioP1;P1;durP2;ratioP2;P2;SDS_P1;SDS_P2;PMS_P1;PMS_P2;Temp;Humidity;BMP_temperature;BMP_pressure;BME280_temperature;BME280_humidity;BME280_pressure;Samples;Min_cycle;Max_cycle;Signal;HPM_P1;HPM_P2
2021/06/28 00:01:10;;;;;;;;;;;17.70;99.90;;;;;;5092797;28;19908;-73
2021/06/28 00:03:36;;;;;;;;;;;17.70;99.90;;;;;;5091360;28;19981;-73
2021/06/28 00:06:01;;;;;;;;;;;17.60;99.90;;;;;;5091784;28;19908;-73
2021/06/28 00:08:27;;;;;;;;;;;17.60;99.90;;;;;;5092465;28;19914;-73
2021/06/28 00:10:53;;;;;;;;;;;17.60;99.90;;;;;;5092481;28;19953;-72
2021/06/28 00:13:19;;;;;;;;;;;17.60;99.90;;;;;;5091897;28;19919;-73
2021/06/28 00:15:44;;;;;;;;;;;17.50;99.90;;;;;;5090060;28;19908;-73
2021/06/28 00:18:11;;;;;;;;;;;17.50;99.90;;;;;;5092536;28;19912;-73
2021/06/28 00:20:37;;;;;;;;;;;17.50;99.90;;;;;;5092277;28;19915;-73
2021/06/28 00:23:03;;;;;;;;;;;17.50;99.90;;;;;;5092215;28;19908;-73
2021/06/28 00:25:29;;;;;;;;;;;17.50;99.90;;;;;;5078039;28;19909;-73
2021/06/28 00:27:54;;;;;;;;;;;17.50;99.90;;;;;;5070829;28;19917;-73
2021/06/28 00:30:20;;;;;;;;;;;17.50;99.90;;;;;;5071741;28;20417;-72
2021/06/28 00:32:46;;;;;;;;;;;17.50;99.90;;;;;;5071741;28;19916;-72
2021/06/28 00:35:12;;;;;;;;;;;17.60;99.90;;;;;;5070417;28;19908;-73
2021/06/28 00:37:38;;;;;;;;;;;17.60;99.90;;;;;;5070914;28;19909;-73
2021/06/28 00:40:06;;;;;;;;;;;17.70;99.90;;;;;;5070416;28;20424;-73
2021/06/28 00:42:31;;;;;;;;;;;17.70;99.90;;;;;;5070983;28;19931;-73
2021/06/28 00:44:57;;;;;;;;;;;17.80;99.90;;;;;;5071080;28;19912;-73
2021/06/28 00:47:22;;;;;;;;;;;17.80;99.90;;;;;;5070728;28;20396;-72
2021/06/28 00:49:48;;;;;;;;;;;17.80;99.90;;;;;;5071721;28;20008;-73
2021/06/28 00:52:13;;;;;;;;;;;17.80;99.90;;;;;;5071535;28;19917;-73
2021/06/28 00:54:39;;;;;;;;;;;17.80;99.90;;;;;;5069683;28;19909;-73
2021/06/28 00:57:05;;;;;;;;;;;17.70;99.90;;;;;;5070294;28;19908;-73
2021/06/28 00:59:31;;;;;;;;;;;17.80;99.90;;;;;;5070814;28;19915;-72
2021/06/28 01:01:59;;;;;;;;;;;17.80;99.90;;;;;;5071276;28;19912;-73
2021/06/28 01:04:25;;;;;;;;;;;17.80;99.90;;;;;;5070037;28;19908;-73
2021/06/28 01:06:50;;;;;;;;;;;17.90;99.90;;;;;;5069053;28;20372;-72
2021/06/28 01:09:16;;;;;;;;;;;17.90;99.90;;;;;;5069861;28;19909;-73
2021/06/28 01:11:41;;;;;;;;;;;17.90;99.90;;;;;;5062701;28;19927;-73
2021/06/28 01:14:07;;;;;;;;;;;17.90;99.90;;;;;;5066067;28;19912;-72
2021/06/28 01:16:32;;;;;;;;;;;17.80;99.90;;;;;;5070144;28;19908;-73
2021/06/28 01:18:58;;;;;;;;;;;17.80;99.90;;;;;;5071060;28;20270;-73
2021/06/28 01:21:26;;;;;;;;;;;17.70;99.90;;;;;;5071062;28;19912;-73
2021/06/28 01:23:52;;;;;;;;;;;17.80;99.90;;;;;;5071226;28;20267;-73
2021/06/28 01:26:17;;;;;;;;;;;17.80;99.90;;;;;;5070147;28;19969;-73
2021/06/28 01:28:43;;;;;;;;;;;17.80;99.90;;;;;;5069316;28;20015;-73
2021/06/28 01:31:10;;;;;;;;;;;17.80;99.90;;;;;;5071027;28;19915;-73
2021/06/28 01:33:36;;;;;;;;;;;17.80;99.90;;;;;;5071008;28;19916;-73
2021/06/28 01:36:02;;;;;;;;;;;17.80;99.90;;;;;;5070165;28;20339;-73
2021/06/28 01:38:28;;;;;;;;;;;17.80;99.90;;;;;;5070882;28;19908;-73
2021/06/28 01:40:54;;;;;;;;;;;17.80;99.90;;;;;;5070922;28;19912;-73
2021/06/28 01:43:23;;;;;;;;;;;17.80;99.90;;;;;;5061528;28;20403;-72
2021/06/28 01:45:48;;;;;;;;;;;17.90;99.90;;;;;;5083096;28;19961;-72
2021/06/28 01:48:14;;;;;;;;;;;17.80;99.90;;;;;;5090646;28;19908;-72
2021/06/28 01:50:41;;;;;;;;;;;17.80;99.90;;;;;;5091074;28;19912;-73
2021/06/28 01:53:06;;;;;;;;;;;17.80;99.90;;;;;;5089784;28;19943;-73
2021/06/28 01:55:33;;;;;;;;;;;17.70;99.90;;;;;;5093790;28;19954;-72
2021/06/28 01:58:00;;;;;;;;;;;17.70;99.90;;;;;;5093972;28;20000;-73
2021/06/28 02:00:29;;;;;;;;;;;17.70;99.90;;;;;;5094862;28;20410;-75
2021/06/28 02:02:59;;;;;;;;;;;17.70;99.90;;;;;;5094891;28;19954;-73
2021/06/28 02:05:25;;;;;;;;;;;17.80;99.90;;;;;;5094704;28;20388;-73
2021/06/28 02:07:51;;;;;;;;;;;17.80;99.90;;;;;;5093966;28;19919;-72
2021/06/28 02:10:16;;;;;;;;;;;17.90;99.90;;;;;;5094714;28;19908;-72
2021/06/28 02:12:42;;;;;;;;;;;17.90;99.90;;;;;;5075931;28;20329;-72
2021/06/28 02:15:15;;;;;;;;;;;17.90;99.90;;;;;;5073867;28;19909;-73
2021/06/28 02:17:40;;;;;;;;;;;17.90;99.90;;;;;;5073585;28;19928;-73
2021/06/28 02:20:06;;;;;;;;;;;17.90;99.90;;;;;;5074272;28;19916;-73
2021/06/28 02:22:32;;;;;;;;;;;17.90;99.90;;;;;;5074237;28;20460;-73
2021/06/28 02:24:57;;;;;;;;;;;17.90;99.90;;;;;;5073784;28;19908;-72
2021/06/28 02:27:23;;;;;;;;;;;17.90;99.90;;;;;;5073338;28;20280;-73
2021/06/28 02:29:48;;;;;;;;;;;18.00;99.90;;;;;;5073547;28;19951;-73
2021/06/28 02:32:14;;;;;;;;;;;17.90;99.90;;;;;;5073978;28;19951;-73
2021/06/28 02:34:39;;;;;;;;;;;18.00;99.90;;;;;;5072645;28;20381;-73
2021/06/28 02:37:05;;;;;;;;;;;17.90;99.90;;;;;;5073016;28;19909;-73
2021/06/28 02:39:31;;;;;;;;;;;17.90;99.90;;;;;;5073684;28;19992;-73
2021/06/28 02:41:57;;;;;;;;;;;17.90;99.90;;;;;;5068845;28;20003;-72
2021/06/28 02:44:22;;;;;;;;;;;17.80;99.90;;;;;;5070988;28;19951;-74
2021/06/28 02:46:48;;;;;;;;;;;17.80;99.90;;;;;;5072832;28;19951;-73
2021/06/28 02:49:13;;;;;;;;;;;17.70;99.90;;;;;;5074021;28;20425;-73
2021/06/28 02:51:39;;;;;;;;;;;17.70;99.90;;;;;;5073541;28;19919;-73
2021/06/28 02:54:04;;;;;;;;;;;17.70;99.90;;;;;;5073398;28;19908;-74
2021/06/28 02:56:30;;;;;;;;;;;17.70;99.90;;;;;;5072683;28;20266;-74
2021/06/28 02:58:57;;;;;;;;;;;17.70;99.90;;;;;;5071955;28;19963;-73
2021/06/28 03:01:24;;;;;;;;;;;17.60;99.90;;;;;;5072240;28;19909;-74
2021/06/28 03:03:49;;;;;;;;;;;17.70;99.90;;;;;;5073367;28;19908;-74
2021/06/28 03:06:15;;;;;;;;;;;17.70;99.90;;;;;;5072382;28;19909;-74
2021/06/28 03:08:42;;;;;;;;;;;17.70;99.90;;;;;;5071693;28;19909;-74
2021/06/28 03:11:08;;;;;;;;;;;17.70;99.90;;;;;;5073287;28;19909;-73
2021/06/28 03:13:34;;;;;;;;;;;17.80;99.90;;;;;;5064077;28;20006;-74
2021/06/28 03:15:59;;;;;;;;;;;17.80;99.90;;;;;;5072181;28;20368;-74
2021/06/28 03:18:25;;;;;;;;;;;17.80;99.90;;;;;;5071731;28;19999;-74
2021/06/28 03:20:51;;;;;;;;;;;17.80;99.90;;;;;;5073583;28;20273;-74
2021/06/28 03:23:17;;;;;;;;;;;17.80;99.90;;;;;;5073041;28;19915;-73
2021/06/28 03:25:43;;;;;;;;;;;17.80;99.90;;;;;;5072129;28;19909;-74
2021/06/28 03:28:08;;;;;;;;;;;17.80;99.90;;;;;;5072889;28;19908;-74
2021/06/28 03:30:34;;;;;;;;;;;17.80;99.90;;;;;;5072657;28;19919;-73
2021/06/28 03:33:00;;;;;;;;;;;17.60;99.90;;;;;;5072860;28;20064;-74
2021/06/28 03:35:25;;;;;;;;;;;17.70;99.90;;;;;;5071481;28;19913;-74
2021/06/28 03:37:51;;;;;;;;;;;17.70;99.90;;;;;;5071727;28;19909;-74
2021/06/28 03:40:16;;;;;;;;;;;17.70;99.90;;;;;;5072585;28;19916;-74
2021/06/28 03:42:42;;;;;;;;;;;17.70;99.90;;;;;;5065156;28;19955;-73
2021/06/28 03:45:09;;;;;;;;;;;17.70;99.90;;;;;;5072191;28;19999;-74
2021/06/28 03:47:35;;;;;;;;;;;17.70;99.90;;;;;;5071412;28;19919;-74
2021/06/28 03:50:00;;;;;;;;;;;17.70;99.90;;;;;;5073020;28;19908;-74
2021/06/28 03:52:26;;;;;;;;;;;17.70;99.90;;;;;;5070932;28;19982;-74
2021/06/28 03:54:51;;;;;;;;;;;17.70;99.90;;;;;;5072293;28;20284;-74
2021/06/28 03:57:17;;;;;;;;;;;17.70;99.90;;;;;;5071773;28;19962;-73
2021/06/28 03:59:42;;;;;;;;;;;17.80;99.90;;;;;;5072284;28;19915;-74
2021/06/28 04:02:08;;;;;;;;;;;17.80;99.90;;;;;;5072351;28;19958;-74
2021/06/28 04:04:33;;;;;;;;;;;17.80;99.90;;;;;;5072162;28;19913;-73
2021/06/28 04:06:59;;;;;;;;;;;17.90;99.90;;;;;;5071235;28;19908;-73
2021/06/28 04:09:25;;;;;;;;;;;17.90;99.90;;;;;;5072030;28;20379;-73
2021/06/28 04:11:50;;;;;;;;;;;17.90;99.90;;;;;;5066819;28;20033;-74
2021/06/28 04:14:16;;;;;;;;;;;17.90;99.90;;;;;;5076889;28;20006;-74
2021/06/28 04:16:41;;;;;;;;;;;18.00;99.90;;;;;;5089401;28;19919;-74
2021/06/28 04:19:07;;;;;;;;;;;18.00;99.90;;;;;;5090910;28;19908;-74
2021/06/28 04:21:34;;;;;;;;;;;18.00;99.90;;;;;;5090863;28;19908;-73
2021/06/28 04:24:02;;;;;;;;;;;18.00;99.90;;;;;;5091874;28;20396;-74
2021/06/28 04:26:28;;;;;;;;;;;18.00;99.90;;;;;;5091135;28;19969;-73
2021/06/28 04:28:53;;;;;;;;;;;18.10;99.90;;;;;;5091599;28;19916;-74
2021/06/28 04:31:19;;;;;;;;;;;18.10;99.90;;;;;;5091962;28;19936;-73
2021/06/28 04:33:44;;;;;;;;;;;18.10;99.90;;;;;;5091951;28;20056;-74
2021/06/28 04:36:10;;;;;;;;;;;18.10;99.90;;;;;;5090882;28;19908;-74
2021/06/28 04:38:35;;;;;;;;;;;18.20;99.90;;;;;;5091605;28;20015;-73
2021/06/28 04:41:01;;;;;;;;;;;18.10;99.90;;;;;;5091693;28;20379;-73
2021/06/28 04:43:26;;;;;;;;;;;18.10;99.90;;;;;;5066897;28;20274;-74
2021/06/28 04:45:52;;;;;;;;;;;18.10;99.90;;;;;;5070206;28;20011;-74
2021/06/28 04:48:17;;;;;;;;;;;18.10;99.90;;;;;;5071383;28;20278;-73
2021/06/28 04:50:43;;;;;;;;;;;18.20;99.90;;;;;;5071436;28;19953;-74
2021/06/28 04:53:08;;;;;;;;;;;18.20;99.90;;;;;;5071054;28;20285;-74
2021/06/28 04:55:34;;;;;;;;;;;18.20;99.90;;;;;;5071058;28;20389;-73
2021/06/28 04:57:59;;;;;;;;;;;18.30;99.90;;;;;;5070888;28;19909;-74
2021/06/28 05:00:25;;;;;;;;;;;18.30;99.90;;;;;;5071062;28;19999;-74
2021/06/28 05:02:51;;;;;;;;;;;18.30;99.90;;;;;;5071181;28;19995;-74
2021/06/28 05:05:17;;;;;;;;;;;18.30;99.90;;;;;;5070989;28;20026;-73
2021/06/28 05:07:42;;;;;;;;;;;18.30;99.90;;;;;;5070151;28;19912;-74
2021/06/28 05:10:09;;;;;;;;;;;18.40;99.90;;;;;;5071273;28;19961;-74
2021/06/28 05:12:34;;;;;;;;;;;18.40;99.90;;;;;;5063583;28;19917;-74
2021/06/28 05:15:00;;;;;;;;;;;18.50;99.90;;;;;;5070465;28;19908;-74
2021/06/28 05:17:25;;;;;;;;;;;18.60;99.90;;;;;;5070303;28;19908;-73
2021/06/28 05:19:51;;;;;;;;;;;18.70;99.90;;;;;;5070802;28;19962;-74
2021/06/28 05:22:17;;;;;;;;;;;18.80;99.90;;;;;;5070993;28;19912;-73
2021/06/28 05:24:42;;;;;;;;;;;19.00;99.90;;;;;;5070825;28;19916;-73
2021/06/28 05:27:08;;;;;;;;;;;19.10;99.90;;;;;;5070087;28;19909;-73
2021/06/28 05:29:33;;;;;;;;;;;19.20;99.90;;;;;;5069663;28;19921;-73
2021/06/28 05:31:59;;;;;;;;;;;19.20;99.90;;;;;;5070831;28;19912;-73
2021/06/28 05:34:25;;;;;;;;;;;19.30;99.90;;;;;;5071018;28;19908;-74
2021/06/28 05:36:50;;;;;;;;;;;19.40;99.90;;;;;;5069929;28;19920;-74
2021/06/28 05:39:16;;;;;;;;;;;19.40;99.90;;;;;;5070852;28;20265;-73
2021/06/28 05:41:41;;;;;;;;;;;19.50;99.90;;;;;;5068414;28;19978;-74
2021/06/28 05:44:07;;;;;;;;;;;19.70;99.90;;;;;;5065905;28;19922;-74
2021/06/28 05:46:32;;;;;;;;;;;19.80;99.90;;;;;;5069966;28;19932;-74
2021/06/28 05:48:58;;;;;;;;;;;20.00;99.90;;;;;;5070719;28;19999;-74
2021/06/28 05:51:23;;;;;;;;;;;20.20;99.90;;;;;;5070466;28;19971;-74
2021/06/28 05:53:49;;;;;;;;;;;20.30;99.90;;;;;;5070330;28;19912;-74
2021/06/28 05:56:15;;;;;;;;;;;20.50;99.90;;;;;;5068016;28;19963;-74
2021/06/28 05:58:41;;;;;;;;;;;20.60;99.90;;;;;;5070810;28;19908;-74
2021/06/28 06:01:06;;;;;;;;;;;20.80;99.90;;;;;;5069380;28;19954;-74
2021/06/28 06:03:32;;;;;;;;;;;21.10;99.90;;;;;;5070678;28;19916;-74
2021/06/28 06:05:58;;;;;;;;;;;21.20;99.90;;;;;;5068198;28;19954;-74
2021/06/28 06:08:24;;;;;;;;;;;21.40;99.90;;;;;;5070749;28;19962;-74
2021/06/28 06:10:53;;;;;;;;;;;21.50;99.90;;;;;;5070788;28;19915;-74
2021/06/28 06:13:19;;;;;;;;;;;21.60;99.90;;;;;;5063240;28;19912;-74
2021/06/28 06:15:44;;;;;;;;;;;21.70;99.90;;;;;;5069489;28;19970;-74
2021/06/28 06:18:10;;;;;;;;;;;21.90;99.90;;;;;;5070915;28;19915;-74
2021/06/28 06:20:35;;;;;;;;;;;22.20;99.90;;;;;;5069311;28;19932;-74
2021/06/28 06:23:01;;;;;;;;;;;22.50;99.90;;;;;;5058801;28;19948;-74
2021/06/28 06:25:26;;;;;;;;;;;23.00;99.90;;;;;;5069128;28;19951;-74
2021/06/28 06:27:52;;;;;;;;;;;23.40;99.90;;;;;;5069160;28;19915;-74
2021/06/28 06:30:18;;;;;;;;;;;23.80;99.90;;;;;;5063004;28;19908;-74
2021/06/28 06:32:43;;;;;;;;;;;24.10;99.90;;;;;;5069919;28;20027;-74
2021/06/28 06:35:09;;;;;;;;;;;24.30;99.90;;;;;;5070020;28;19912;-74
2021/06/28 06:37:34;;;;;;;;;;;24.00;99.90;;;;;;5067998;28;20366;-74
2021/06/28 06:40:00;;;;;;;;;;;24.10;99.90;;;;;;5065648;28;19908;-74
2021/06/28 06:42:25;;;;;;;;;;;24.20;99.90;;;;;;5064612;28;19917;-75
2021/06/28 06:44:51;;;;;;;;;;;24.40;99.90;;;;;;5072915;28;20370;-76
2021/06/28 06:47:16;;;;;;;;;;;24.60;99.90;;;;;;5072942;28;19915;-76
2021/06/28 06:49:42;;;;;;;;;;;24.90;99.90;;;;;;5072802;28;19909;-76
2021/06/28 06:52:09;;;;;;;;;;;25.20;99.90;;;;;;5066012;28;19975;-75
2021/06/28 06:54:34;;;;;;;;;;;25.70;99.90;;;;;;5092164;28;19999;-75
2021/06/28 06:57:00;;;;;;;;;;;26.30;99.90;;;;;;5091814;28;20189;-75
2021/06/28 06:59:25;;;;;;;;;;;26.60;99.90;;;;;;5092256;28;19916;-75
2021/06/28 07:01:51;;;;;;;;;;;26.70;99.90;;;;;;5091707;28;19908;-78
2021/06/28 07:04:18;;;;;;;;;;;27.00;99.90;;;;;;5093394;28;19965;-75
2021/06/28 07:06:43;;;;;;;;;;;26.90;99.90;;;;;;5092773;28;19947;-75
2021/06/28 07:09:09;;;;;;;;;;;27.40;99.90;;;;;;5093587;28;20000;-80
2021/06/28 07:11:34;;;;;;;;;;;27.80;99.90;;;;;;5088995;28;19915;-75
2021/06/28 07:14:00;;;;;;;;;;;28.10;99.90;;;;;;5066958;28;20327;-75
2021/06/28 07:16:30;;;;;;;;;;;28.30;99.90;;;;;;5072333;28;20009;-76
2021/06/28 07:18:59;;;;;;;;;;;28.20;99.90;;;;;;5072821;28;19909;-75
2021/06/28 07:21:25;;;;;;;;;;;28.30;99.90;;;;;;5071908;28;20421;-75
2021/06/28 07:23:52;;;;;;;;;;;28.70;99.90;;;;;;5072466;28;20173;-75
2021/06/28 07:26:18;;;;;;;;;;;28.70;99.90;;;;;;5072218;28;19924;-75
2021/06/28 07:28:44;;;;;;;;;;;28.90;99.90;;;;;;5072383;28;19948;-75
2021/06/28 07:31:09;;;;;;;;;;;28.80;99.90;;;;;;5084997;28;19955;-80
2021/06/28 07:33:39;;;;;;;;;;;28.50;99.90;;;;;;5090055;28;19916;-76
2021/06/28 07:36:05;;;;;;;;;;;28.60;99.90;;;;;;5072808;28;20407;-76
2021/06/28 07:38:30;;;;;;;;;;;28.90;99.90;;;;;;5065833;28;20270;-76
2021/06/28 07:40:56;;;;;;;;;;;29.20;99.90;;;;;;5086678;28;19930;-76
2021/06/28 07:43:21;;;;;;;;;;;29.40;99.90;;;;;;5072180;28;19977;-76
2021/06/28 07:45:49;;;;;;;;;;;29.40;99.40;;;;;;5071163;28;19944;-76
2021/06/28 07:48:15;;;;;;;;;;;29.30;99.90;;;;;;5072338;28;19908;-76
2021/06/28 07:50:41;;;;;;;;;;;29.10;99.80;;;;;;5072570;28;19912;-76
2021/06/28 07:53:07;;;;;;;;;;;29.10;99.90;;;;;;5071082;28;19912;-76
2021/06/28 07:55:33;;;;;;;;;;;29.10;99.90;;;;;;5072445;28;19908;-77
2021/06/28 07:57:58;;;;;;;;;;;29.30;99.90;;;;;;5071674;28;19917;-77
2021/06/28 08:00:24;;;;;;;;;;;29.60;99.90;;;;;;5067913;28;20490;-78
2021/06/28 08:02:49;;;;;;;;;;;29.90;99.90;;;;;;5071059;28;20397;-77
2021/06/28 08:05:15;;;;;;;;;;;30.40;99.90;;;;;;5076968;28;19951;-78
2021/06/28 08:07:41;;;;;;;;;;;30.60;99.50;;;;;;5078014;28;20826;-75
2021/06/28 08:10:09;;;;;;;;;;;30.70;99.70;;;;;;5078488;28;19912;-75
2021/06/28 08:12:34;;;;;;;;;;;30.60;97.40;;;;;;5059862;28;19972;-75
2021/06/28 08:15:00;;;;;;;;;;;30.40;99.90;;;;;;5054725;28;20011;-75
2021/06/28 08:17:25;;;;;;;;;;;30.50;99.60;;;;;;5056145;28;20265;-75
2021/06/28 08:19:51;;;;;;;;;;;30.70;99.40;;;;;;5058113;28;19916;-75
2021/06/28 08:22:17;;;;;;;;;;;30.80;98.50;;;;;;5058453;28;19919;-75
2021/06/28 08:24:42;;;;;;;;;;;31.10;98.20;;;;;;5055063;28;20696;-75
2021/06/28 08:27:08;;;;;;;;;;;31.10;99.50;;;;;;5063021;28;19912;-75
2021/06/28 08:29:34;;;;;;;;;;;31.20;96.00;;;;;;5071750;28;19919;-75
2021/06/28 08:31:59;;;;;;;;;;;31.10;97.00;;;;;;5068455;28;19977;-75
2021/06/28 08:34:25;;;;;;;;;;;31.00;96.70;;;;;;5062571;28;19912;-75
2021/06/28 08:36:51;;;;;;;;;;;31.00;96.50;;;;;;5057857;28;19912;-75
2021/06/28 08:39:17;;;;;;;;;;;31.00;98.00;;;;;;5064881;28;19912;-75
2021/06/28 08:41:49;;;;;;;;;;;31.20;99.40;;;;;;5073153;28;20445;-75
2021/06/28 08:44:15;;;;;;;;;;;31.30;96.10;;;;;;5054076;28;19951;-76
2021/06/28 08:46:41;;;;;;;;;;;30.80;94.90;;;;;;5037581;28;20294;-77
2021/06/28 08:49:07;;;;;;;;;;;30.80;98.70;;;;;;5038244;28;19909;-75
2021/06/28 08:51:32;;;;;;;;;;;30.80;96.60;;;;;;5039002;28;19935;-75
2021/06/28 08:53:58;;;;;;;;;;;30.90;95.70;;;;;;5036633;28;19923;-75
2021/06/28 08:56:24;;;;;;;;;;;30.90;97.60;;;;;;5037936;28;19917;-74
2021/06/28 08:58:49;;;;;;;;;;;31.00;97.40;;;;;;5037003;28;19913;-75
2021/06/28 09:01:15;;;;;;;;;;;31.10;97.10;;;;;;5035483;28;20185;-74
2021/06/28 09:03:41;;;;;;;;;;;31.10;97.70;;;;;;5036519;28;19919;-75
2021/06/28 09:06:07;;;;;;;;;;;31.30;98.60;;;;;;5037097;28;19912;-75
2021/06/28 09:08:51;;;;;;;;;;;31.50;96.30;;;;;;5039366;28;19975;-74
2021/06/28 09:11:18;;;;;;;;;;;31.60;95.10;;;;;;5039948;28;19913;-75
2021/06/28 09:13:46;;;;;;;;;;;31.50;95.40;;;;;;5054775;28;20239;-74
2021/06/28 09:16:13;;;;;;;;;;;31.50;96.10;;;;;;5058218;28;20043;-74
2021/06/28 09:18:48;;;;;;;;;;;31.40;96.60;;;;;;5057579;28;19916;-74
2021/06/28 09:21:14;;;;;;;;;;;31.40;93.80;;;;;;5060141;28;20027;-75
2021/06/28 09:23:40;;;;;;;;;;;31.40;95.80;;;;;;5070807;28;19915;-75
2021/06/28 09:26:10;;;;;;;;;;;31.70;96.40;;;;;;5070650;28;20360;-75
2021/06/28 09:28:41;;;;;;;;;;;31.90;93.90;;;;;;5069573;28;19909;-75
2021/06/28 09:31:08;;;;;;;;;;;31.70;95.70;;;;;;5064648;28;19913;-75
2021/06/28 09:33:34;;;;;;;;;;;31.60;95.40;;;;;;5090135;28;20030;-75
2021/06/28 09:36:00;;;;;;;;;;;31.60;95.90;;;;;;5065912;28;19920;-74
2021/06/28 09:38:31;;;;;;;;;;;31.70;94.30;;;;;;5073127;28;20289;-75
2021/06/28 09:41:16;;;;;;;;;;;31.70;93.30;;;;;;5073729;28;19912;-75
2021/06/28 09:43:42;;;;;;;;;;;31.90;94.30;;;;;;5071683;28;19917;-75
2021/06/28 09:46:15;;;;;;;;;;;32.10;94.40;;;;;;5070150;28;19915;-75
2021/06/28 09:48:49;;;;;;;;;;;32.10;97.40;;;;;;5071172;28;19951;-75
2021/06/28 09:51:19;;;;;;;;;;;32.50;95.30;;;;;;5069606;28;20268;-75
2021/06/28 09:53:45;;;;;;;;;;;32.60;95.20;;;;;;5069487;28;19919;-75
2021/06/28 09:56:27;;;;;;;;;;;32.80;94.90;;;;;;5070454;28;19909;-75
2021/06/28 09:58:52;;;;;;;;;;;32.80;94.40;;;;;;5071708;28;20328;-75
2021/06/28 10:01:22;;;;;;;;;;;32.80;91.60;;;;;;5076642;28;19939;-75
2021/06/28 10:03:51;;;;;;;;;;;32.70;90.50;;;;;;5069384;28;20013;-75
2021/06/28 10:08:50;;;;;;;;;;;33.20;92.30;;;;;;5071363;28;20016;-75
2021/06/28 10:11:17;;;;;;;;;;;33.30;91.10;;;;;;5071057;28;20001;-75
2021/06/28 10:13:45;;;;;;;;;;;33.50;94.40;;;;;;5061310;28;20403;-74
2021/06/28 10:16:10;;;;;;;;;;;33.60;90.60;;;;;;5071901;28;19909;-75
2021/06/28 10:18:37;;;;;;;;;;;33.30;88.80;;;;;;5074939;28;19908;-75
2021/06/28 10:21:02;;;;;;;;;;;33.00;90.40;;;;;;5074460;28;19944;-75
2021/06/28 10:23:28;;;;;;;;;;;32.70;89.00;;;;;;5074028;28;19950;-74
2021/06/28 10:25:53;;;;;;;;;;;32.40;91.10;;;;;;5073428;28;20579;-75
2021/06/28 10:28:19;;;;;;;;;;;32.50;90.00;;;;;;5074442;28;19908;-74
2021/06/28 10:30:45;;;;;;;;;;;32.80;92.70;;;;;;5070857;28;19912;-74
2021/06/28 10:33:13;;;;;;;;;;;32.90;88.70;;;;;;5092648;28;19957;-74
2021/06/28 10:35:40;;;;;;;;;;;32.90;90.20;;;;;;5092214;28;19908;-74
2021/06/28 10:38:10;;;;;;;;;;;33.20;91.00;;;;;;5087561;28;19940;-74
2021/06/28 10:40:47;;;;;;;;;;;33.50;87.20;;;;;;5073506;28;19931;-75
2021/06/28 10:43:22;;;;;;;;;;;33.60;83.10;;;;;;5066011;28;20369;-75
2021/06/28 10:45:47;;;;;;;;;;;33.70;84.70;;;;;;5072287;28;19909;-74
2021/06/28 10:48:15;;;;;;;;;;;33.70;91.00;;;;;;5072409;28;20306;-74
2021/06/28 10:51:06;;;;;;;;;;;34.00;84.40;;;;;;5073770;28;19909;-74
2021/06/28 10:53:32;;;;;;;;;;;33.70;86.70;;;;;;5072594;28;19916;-74
2021/06/28 10:59:04;;;;;;;;;;;33.50;89.00;;;;;;5073788;28;19955;-74
2021/06/28 11:01:39;;;;;;;;;;;33.50;86.30;;;;;;5073292;28;19914;-74
2021/06/28 11:04:14;;;;;;;;;;;33.70;80.10;;;;;;5073372;28;19912;-74
2021/06/28 11:06:46;;;;;;;;;;;33.60;82.70;;;;;;5072829;28;20585;-74
2021/06/28 11:09:11;;;;;;;;;;;33.70;87.20;;;;;;5063945;28;19955;-74
2021/06/28 11:11:46;;;;;;;;;;;33.70;83.20;;;;;;5070772;28;19948;-74
2021/06/28 11:14:18;;;;;;;;;;;33.70;82.00;;;;;;5060542;28;19999;-74
2021/06/28 11:17:09;;;;;;;;;;;33.90;82.20;;;;;;5070571;28;20369;-74
2021/06/28 11:19:58;;;;;;;;;;;34.00;80.90;;;;;;5071874;28;19920;-74
2021/06/28 11:22:27;;;;;;;;;;;33.50;80.80;;;;;;5073166;28;19920;-74
2021/06/28 11:25:12;;;;;;;;;;;33.20;84.60;;;;;;5072852;28;19978;-74
2021/06/28 11:27:39;;;;;;;;;;;33.20;79.20;;;;;;5072205;28;19916;-74
2021/06/28 11:30:05;;;;;;;;;;;33.30;81.60;;;;;;5065541;28;19999;-74
2021/06/28 11:32:31;;;;;;;;;;;33.10;81.90;;;;;;5071179;28;19912;-74
2021/06/28 11:34:58;;;;;;;;;;;33.00;82.80;;;;;;5072486;28;19954;-75
2021/06/28 11:37:24;;;;;;;;;;;33.20;85.30;;;;;;5072074;28;20357;-74
2021/06/28 11:39:54;;;;;;;;;;;33.30;82.40;;;;;;5069539;28;19995;-75
2021/06/28 11:42:26;;;;;;;;;;;33.30;81.00;;;;;;5064834;28;20062;-74
2021/06/28 11:44:59;;;;;;;;;;;33.30;80.70;;;;;;5072054;28;19912;-74
2021/06/28 11:47:53;;;;;;;;;;;33.20;82.40;;;;;;5070960;28;19970;-74
2021/06/28 11:50:24;;;;;;;;;;;33.10;78.80;;;;;;5069379;28;19909;-74
2021/06/28 11:53:10;;;;;;;;;;;33.20;82.20;;;;;;5051861;28;20341;-74
2021/06/28 11:55:37;;;;;;;;;;;32.80;81.20;;;;;;5051708;28;19916;-74
2021/06/28 11:58:03;;;;;;;;;;;32.60;85.60;;;;;;5051838;28;19909;-74
2021/06/28 12:00:29;;;;;;;;;;;32.70;85.20;;;;;;5052816;28;20251;-74
2021/06/28 12:03:13;;;;;;;;;;;33.00;92.30;;;;;;5070453;28;19917;-74
2021/06/28 12:05:39;;;;;;;;;;;33.20;82.40;;;;;;5071785;28;19947;-74
2021/06/28 12:08:05;;;;;;;;;;;33.30;79.40;;;;;;5072255;28;19915;-75
2021/06/28 12:10:31;;;;;;;;;;;33.50;87.10;;;;;;5071873;28;19908;-74
2021/06/28 12:12:57;;;;;;;;;;;33.70;79.00;;;;;;5064227;28;19918;-74
2021/06/28 12:15:26;;;;;;;;;;;33.80;81.40;;;;;;5071566;28;19908;-74
2021/06/28 12:17:51;;;;;;;;;;;33.90;79.20;;;;;;5069997;28;19909;-74
2021/06/28 12:20:19;;;;;;;;;;;34.10;78.50;;;;;;5071892;28;20289;-74
2021/06/28 12:22:45;;;;;;;;;;;34.00;79.90;;;;;;5069182;28;19966;-74
2021/06/28 12:25:11;;;;;;;;;;;33.70;77.50;;;;;;5070937;28;19935;-74
2021/06/28 12:27:38;;;;;;;;;;;33.50;77.60;;;;;;5070360;28;20281;-74
2021/06/28 12:30:08;;;;;;;;;;;33.10;80.00;;;;;;5068130;28;19908;-74
2021/06/28 12:32:35;;;;;;;;;;;33.00;81.00;;;;;;5070169;28;20332;-74
2021/06/28 12:35:02;;;;;;;;;;;33.00;82.10;;;;;;5070803;28;19966;-74
2021/06/28 12:37:29;;;;;;;;;;;32.80;81.00;;;;;;5070368;28;19908;-74
2021/06/28 12:40:11;;;;;;;;;;;32.70;82.50;;;;;;5069739;28;19908;-75
2021/06/28 12:42:41;;;;;;;;;;;32.60;83.50;;;;;;5063461;28;19963;-74
2021/06/28 12:45:07;;;;;;;;;;;32.50;84.10;;;;;;5071093;28;20006;-74
2021/06/28 12:47:32;;;;;;;;;;;32.40;81.40;;;;;;5070802;28;20247;-74
2021/06/28 12:49:58;;;;;;;;;;;32.20;85.30;;;;;;5071244;28;19988;-74
2021/06/28 12:52:34;;;;;;;;;;;32.20;81.70;;;;;;5071183;28;19913;-74
2021/06/28 12:55:02;;;;;;;;;;;32.40;83.60;;;;;;5071174;28;19913;-74
2021/06/28 12:57:29;;;;;;;;;;;32.50;82.60;;;;;;5070501;28;20354;-74
2021/06/28 12:59:54;;;;;;;;;;;32.80;82.70;;;;;;5071339;28;19916;-74
2021/06/28 13:02:32;;;;;;;;;;;33.00;80.30;;;;;;5070789;28;20028;-74
2021/06/28 13:05:06;;;;;;;;;;;32.50;82.30;;;;;;5071101;28;20006;-74
2021/06/28 13:07:31;;;;;;;;;;;32.20;82.50;;;;;;5070460;28;19909;-74
2021/06/28 13:09:58;;;;;;;;;;;32.10;83.80;;;;;;5070051;28;20262;-74
2021/06/28 13:12:24;;;;;;;;;;;32.20;82.80;;;;;;5062359;28;19919;-74
2021/06/28 13:14:59;;;;;;;;;;;32.30;83.20;;;;;;5070667;28;19909;-74
2021/06/28 13:17:27;;;;;;;;;;;32.20;82.30;;;;;;5070186;28;19919;-74
2021/06/28 13:19:53;;;;;;;;;;;32.00;83.10;;;;;;5069727;28;19930;-74
2021/06/28 13:22:19;;;;;;;;;;;31.90;84.30;;;;;;5070802;28;19915;-74
2021/06/28 13:24:49;;;;;;;;;;;31.90;83.40;;;;;;5070771;28;19909;-74
2021/06/28 13:27:18;;;;;;;;;;;31.90;84.00;;;;;;5063420;28;19923;-74
2021/06/28 13:29:44;;;;;;;;;;;32.10;84.20;;;;;;5051846;28;19909;-74
2021/06/28 13:32:17;;;;;;;;;;;32.10;81.40;;;;;;5070194;28;19923;-74
2021/06/28 13:34:44;;;;;;;;;;;31.90;81.80;;;;;;5071091;28;19963;-74
2021/06/28 13:37:16;;;;;;;;;;;31.60;85.70;;;;;;5068001;28;19912;-74
2021/06/28 13:39:55;;;;;;;;;;;31.20;86.00;;;;;;5061654;28;19908;-74
2021/06/28 13:42:30;;;;;;;;;;;31.10;86.00;;;;;;5073774;28;19920;-74
2021/06/28 13:44:55;;;;;;;;;;;31.10;89.80;;;;;;5076806;28;19915;-74
2021/06/28 13:47:21;;;;;;;;;;;31.20;88.30;;;;;;5069958;28;19999;-74
2021/06/28 13:49:46;;;;;;;;;;;31.10;88.30;;;;;;5071095;28;19920;-74
2021/06/28 13:52:12;;;;;;;;;;;31.20;85.60;;;;;;5073355;28;19919;-74
2021/06/28 13:54:38;;;;;;;;;;;31.10;86.30;;;;;;5074695;28;19916;-74
2021/06/28 13:57:04;;;;;;;;;;;30.80;86.60;;;;;;5073921;28;19909;-74
2021/06/28 13:59:29;;;;;;;;;;;30.60;86.40;;;;;;5074736;28;20285;-74
2021/06/28 14:01:55;;;;;;;;;;;30.50;87.60;;;;;;5071321;28;19908;-74
2021/06/28 14:04:20;;;;;;;;;;;30.60;88.00;;;;;;5074595;28;19909;-74
2021/06/28 14:06:46;;;;;;;;;;;30.80;90.30;;;;;;5072182;28;19914;-74
2021/06/28 14:09:11;;;;;;;;;;;31.00;88.70;;;;;;5074132;28;19908;-74
2021/06/28 14:11:37;;;;;;;;;;;31.20;85.90;;;;;;5072382;28;19915;-74
2021/06/28 14:14:02;;;;;;;;;;;31.30;87.70;;;;;;5067379;28;19912;-74
2021/06/28 14:16:28;;;;;;;;;;;31.50;84.90;;;;;;5072001;28;20123;-74
2021/06/28 14:18:53;;;;;;;;;;;31.50;85.70;;;;;;5074310;28;20412;-74
2021/06/28 14:21:19;;;;;;;;;;;31.50;88.10;;;;;;5074222;28;19913;-74